ACT        NSW        VIC        QLD        SA        WA        TAS        NT        INFO        CALC            by VK5ZD

  Atmospheric Gas Attenuation - ITU Rec 676-11   --------------- db/100km ---------------
SA Stations Date Time Temp RH % AH g/m3 Dew Point Wind Direction Speed kph Gust kph Barometer mB Rainfall Since 9am 24GHz 47GHz 76GHz 122GHz 134GHz 241GHz
Adelaide (West Terrace / Ngayirdapira) 22 12:10 24.7 61 13.81 16.7 11 13 1014.1 0.2 30.0 31.0 54.5 143.9 150.6 522.2
ADELAIDE AIRPORT 22 12:10 24.5 67 14.99 18 13 15 1014.3 0.2 32.5 33.0 59.6 157.5 167.2 580.2
Andamooka 22 09:00 23.6 95 20.2 22.7 9 1013.1 21 43.7 43.1 84.5 223.7 248.2 862.1
Arkaroola 22 09:00 22.9 73 14.92 17.8 9 1013.1 7 32.5 33.5 60.5 159.8 169.6 588.4
Cape Borda 22 12:10 20.1 98 17.03 19.8 30 35 1012.7 3.2 37.2 38.6 72.6 191.9 208.2 722.5
Cape Jaffa 22 12:10 33 24 8.55 10.3 30 35 1013.1 0 18.6 20.9 31.3 82.1 76.9 265.4
Cape Willoughby 22 12:10 21.8 75 14.39 17.3 9 11 1013.1 0.6 31.4 33.0 59.1 155.9 164.5 570.3
Ceduna 22 12:10 20.5 96 17.08 19.8 17 19 1011.5 0.2 37.3 38.4 72.4 191.4 207.7 720.8
Clare 22 12:10 22.6 72 14.46 17.3 17 24 1013.5 3.6 31.5 32.8 58.8 155.1 163.8 568.0
Cleve 22 09:00 21 99 18.13 20.8 0 1012.1 64 39.5 40.2 77.0 203.7 223.0 773.9
Cleve Airport 22 12:10 24.1 83 18.16 21 13 15 1010.8 0.4 39.3 38.8 74.0 195.7 214.1 743.6
Coober Pedy Airport 22 12:10 28 72 19.58 22.5 19 22 1009.9 0 41.9 39.6 76.6 202.8 224.1 778.8
Coonawarra 22 12:10 33.2 26 9.36 11.1 20 28 1017.2 0 20.2 22.1 33.9 89.0 85.4 295.1
Cultana (Defence) 22 12:10 21.7 95 18.12 20.8 37 44 1013.1 37.8 39.4 39.9 76.3 201.8 220.9 766.7
Cummins Airport 22 12:10 25.3 92 21.54 23.9 17 20 1010.8 0.2 46.4 44.7 89.1 235.8 263.8 916.3
Edinburgh 22 12:10 23.5 76 16.07 19 13 15 1014.7 0.4 34.9 35.4 65.2 172.2 185.0 642.1
Edithburgh 22 12:10 22.4 93 18.47 21.2 11 13 1013.1 1.2 40.1 40.3 77.3 204.5 224.3 778.8
Elliston 22 09:00 23.3 90 18.82 21.6 7 1011.8 22 40.8 40.5 78.0 206.3 226.9 787.9
Ernabella/Pukatja 22 12:10 28.8 55 15.63 18.9 6 6 1008.4 0 33.5 32.3 58.7 155.2 165.9 576.2
Eudunda 22 09:00 25.2 40 9.31 10.8 17 1015.1 0.2 20.5 23.9 37.1 97.4 93.5 322.6
Gluepot 22 09:00 28.5 67 18.73 21.8 13 1013.1 0 40.0 37.9 72.5 191.8 210.6 731.8
Hawker 22 09:00 20.5 93 16.55 19.3 9 1014 6 36.2 37.5 70.0 185.0 199.8 693.3
Hindmarsh Island 22 12:10 21.9 86 16.59 19.5 11 13 1014.8 1 36.1 37.0 69.0 182.3 196.8 683.1
Kadina 22 12:10 23 90 18.5 21.3 26 30 1012.5 5.2 40.1 40.0 76.8 203.1 222.9 773.9
Keith 22 09:00 28.8 31 8.81 10.4 22 1017.2 0 19.3 22.4 33.9 89.0 84.1 290.0
Keith West 22 12:10 34 20 7.51 7.8 26 33 1013.1 0 16.4 19.5 27.8 72.8 65.7 226.1
Kimba 22 09:00 20.6 98 17.54 20.3 0 1013.1 160 38.3 39.3 74.6 197.3 214.9 745.8
Kingscote 22 12:10 22.3 84 16.59 19.5 9 9 1014.1 0.6 36.1 36.8 68.6 181.2 195.7 679.1
Kuitpo 22 12:10 22.3 67 13.23 15.9 17 20 1013.3 0.4 28.9 30.8 53.8 141.8 147.3 510.3
Kyancutta 22 09:00 26.2 79 19.45 22.4 7 1010.9 17 41.8 40.2 77.9 206.2 227.7 791.1
Lameroo Aws 22 12:10 33.5 22 8.04 8.8 26 33 1013.1 0 17.5 20.2 29.6 77.4 71.3 245.8
Leigh Creek 22 12:10 21.3 100 18.64 21.3 15 19 1012.6 12.8 40.6 41.1 79.3 209.6 230.3 799.5
Loxton 22 12:10 33.4 28 10.18 12.9 22 28 1014.8 0 21.9 23.0 36.4 95.7 93.7 324.3
Marree Airport 22 12:10 24.5 91 20.37 22.9 24 26 1012.2 3.4 43.9 42.9 84.3 223.1 247.8 860.7
Meningie 22 09:00 29.1 92 26.57 27.6 1015.2 0 56.5 53.1 110.3 292.3 333.9 1160.3
Minlaton Airport 22 12:10 23 82 16.85 19.8 43 52 1012.8 5.2 36.6 36.9 69.1 182.5 197.6 685.8
Minnipa Rs 22 12:10 27.4 65 17.1 20.2 15 17 1010.6 0 36.7 35.4 66.2 174.9 189.7 658.9
Moomba Airport 22 12:10 28.8 64 18.19 21.3 22 24 1012.4 0.4 38.9 36.8 69.8 184.6 201.8 701.5
Mount Barker 22 09:00 20.1 92 15.99 18.8 4 1013.1 1 35.0 36.6 67.7 178.9 192.1 666.5
Mount Crawford 22 12:10 24.2 48 10.56 12.5 19 20 1014.1 0 23.2 26.0 42.1 110.7 109.6 379.0
Mount Gambier 22 12:10 32.9 22 7.79 8.4 30 35 1017.4 0 17.0 20.2 29.2 76.3 69.6 239.7
Mount Ive 22 09:00 25 83 19.11 22 4 1012.1 140 41.2 40.2 77.6 205.4 226.3 786.0
Mount Lofty 22 12:10 19.8 69 11.78 14.1 6 7 1013.1 1.6 26.0 29.2 49.4 130.0 132.0 456.9
Murray Bridge 22 09:00 25.7 50 11.97 14.7 4 1013.1 0 26.1 27.7 46.5 122.6 124.8 432.2
Naracoorte 22 12:10 33.1 22 7.88 8.5 26 32 1016.5 0 17.2 20.2 29.3 76.8 70.3 242.1
Noarlunga 22 12:10 23.6 68 14.46 17.5 6 6 1013.1 0.2 31.5 32.4 58.0 153.1 161.6 560.6
Nullarbor 22 12:10 22.3 100 19.74 22.3 19 24 1012 0 42.8 42.8 83.6 221.2 244.9 850.3
Nuriootpa 22 12:10 27.3 40 10.47 12.5 22 28 1014.2 0 22.8 25.0 40.2 105.7 104.4 361.0
Oodnadatta 22 12:10 28.2 73 20.07 22.9 6 7 1009.8 0 42.9 40.4 78.7 208.3 230.8 802.3
Padthaway 22 12:10 32.5 25 8.67 9.9 22 26 1013.1 0 18.9 21.2 31.9 83.6 78.6 271.3
Pallamana 22 12:10 26 61 14.85 17.9 13 15 1014.7 0.2 32.1 32.3 57.9 153.0 162.1 562.6
Parafield 22 12:10 24.7 68 15.39 18.4 9 13 1014.2 0.6 33.3 33.7 61.2 161.6 172.4 598.2
Parawa West 22 12:10 23.3 67 14.01 16.8 7 13 1013.1 0 30.5 31.8 56.3 148.6 156.0 540.9
Parndana 22 12:10 20.9 89 16.21 19 19 22 1013.1 1.8 35.4 36.6 68.0 179.7 193.4 671.1
Point Avoid 22 12:10 26.4 76 18.92 21.8 13 15 1013.1 0 40.6 39.2 75.4 199.5 219.4 762.1
Port Augusta 22 12:10 23.1 83 17.16 20.1 28 35 1012.1 7 37.2 37.4 70.4 186.0 201.9 700.9
Port Lincoln Airport 22 12:10 23.1 82 16.95 19.9 22 24 1011.7 0 36.8 37.0 69.4 183.4 198.7 689.6
Port Pirie Airport Aws 22 12:10 21.7 89 16.98 19.8 24 30 1012.3 3.6 37.0 37.7 70.8 187.2 203.0 704.4
Portable Sa Foxtrot (Dew) 22 12:10 32.9 23 8.15 9.4 20 30 1013.1 0 17.8 20.5 30.1 78.9 73.0 251.5
Renmark Airport 22 12:10 33.7 27 9.98 12.1 22 28 1014.5 0 21.5 22.7 35.6 93.6 91.2 315.6
Robe Airport 22 12:10 34.4 31 11.88 15.3 20 24 1013.1 0 25.4 25.0 41.5 109.4 110.9 384.6
Roseworthy 22 12:10 21.2 88 16.31 19.1 26 32 1014.3 2.4 35.6 36.8 68.3 180.4 194.3 674.3
Roxby Downs 22 12:10 26.8 81 20.62 23.3 26 28 1010.8 0 44.2 42.1 82.8 219.3 243.9 847.5
Snowtown 22 12:10 21.4 93 17.43 20.2 17 20 1013.7 18.2 38.0 38.8 73.3 193.9 211.0 732.2
Stenhouse Bay 22 12:10 20.9 93 16.94 19.7 20 26 1013.1 6.2 37.0 38.0 71.4 188.8 204.7 710.1
Strathalbyn 22 12:10 21.7 75 14.31 17.1 7 9 1014.8 2.2 31.3 33.0 58.9 155.4 163.7 567.8
Streaky Bay 22 09:00 20 100 17.28 20 2 1011 16 37.8 39.0 73.8 195.2 212.2 736.3
Tarcoola 22 12:10 29.6 54 16.03 19.3 7 9 1010.2 0 34.3 32.7 59.9 158.2 169.7 589.7
Victor Harbor 22 09:00 28 44 11.97 14.6 22 1013.1 0 25.9 27.0 45.2 119.2 121.2 420.0
Warooka 22 09:00 23.5 91 19.24 22 2 1013.9 0 41.6 41.3 80.0 211.5 233.3 810.0
Whyalla 22 12:10 22.2 89 17.47 20.3 24 28 1012 47.6 38.0 38.4 72.6 192.1 209.1 725.8
Woomera 22 12:10 25.8 87 20.95 23.5 28 33 1010.8 0.2 45.0 43.3 85.6 226.5 252.5 877.2
Wudinna Airport 22 12:10 29 52 14.94 18.4 11 13 1010.3 0 32.1 31.1 55.9 147.7 156.6 543.8
Yongala 22 09:00 23.7 93 19.89 22.5 33 1013.1 0 43.0 42.4 82.9 219.3 242.9 843.5
Yunta 22 12:10 26.7 38 9.62 11.2 37 41 1013.1 0 21.1 23.9 37.4 98.3 95.1 328.7

Last Refresh: 22-Jan-2022 12:16:34

Bureau of Meteorology